Time;durP1;ratioP1;P1;durP2;ratioP2;P2;SDS_P1;SDS_P2;PMS_P1;PMS_P2;Temp;Humidity;BMP_temperature;BMP_pressure;BME280_temperature;BME280_humidity;BME280_pressure;Samples;Min_cycle;Max_cycle;Signal;HPM_P1;HPM_P2
2022/06/26 00:00:07;;;;;;;;;;;;;;;;;;351373;28;802;-67
2022/06/26 00:00:19;;;;;;;;;;;;;;;;;;351391;28;917;-67
2022/06/26 00:00:30;;;;;;;;;;;;;;;;;;351422;28;924;-67
2022/06/26 00:00:40;;;;;;;;;;;;;;;;;;351143;28;1418;-67
2022/06/26 00:00:50;;;;;;;;;;;;;;;;;;350573;28;1490;-67
2022/06/26 00:01:00;;;;;;;;;;;;;;;;;;351394;27;1352;-68
2022/06/26 00:01:11;;;;;;;;;;;;;;;;;;351446;28;968;-67
2022/06/26 00:01:21;;;;;;;;;;;;;;;;;;351474;28;995;-67
2022/06/26 00:01:31;;;;;;;;;;;;;;;;;;351510;28;782;-67
2022/06/26 00:01:41;;;;;;;;;;;;;;;;;;351459;28;968;-67
2022/06/26 00:01:52;;;;;;;;;;;;;;;;;;350560;27;1645;-66
2022/06/26 00:02:02;;;;;;;;;;;;;;;;;;351015;28;1719;-66
2022/06/26 00:02:13;;;;;;;;;;;;;;;;;;351477;28;920;-67
2022/06/26 00:02:23;;;;;;;;;;;;;;;;;;351479;28;1590;-67
2022/06/26 00:02:33;;;;;;;;;;;;;;;;;;351468;28;1904;-67
2022/06/26 00:02:43;;;;;;;;;;;;;;;;;;351506;28;857;-67
2022/06/26 00:02:53;;;;;;;;;;;;;;;;;;351428;28;967;-67
2022/06/26 00:03:04;;;;;;;;;;;;;;;;;;351498;28;838;-67
2022/06/26 00:03:14;;;;;;;;;;;;;;;;;;351412;28;1135;-67
2022/06/26 00:03:24;;;;;;;;;;;;;;;;;;351502;28;928;-67
2022/06/26 00:03:34;;;;;;;;;;;;;;;;;;351519;28;782;-67
2022/06/26 00:03:44;;;;;;;;;;;;;;;;;;351415;28;1599;-67
2022/06/26 00:03:55;;;;;;;;;;;;;;;;;;351443;28;1055;-67
2022/06/26 00:04:05;;;;;;;;;;;;;;;;;;351483;28;920;-66
2022/06/26 00:04:15;;;;;;;;;;;;;;;;;;351503;28;885;-67
2022/06/26 00:04:25;;;;;;;;;;;;;;;;;;351427;28;836;-67
2022/06/26 00:04:36;;;;;;;;;;;;;;;;;;351539;28;833;-67
2022/06/26 00:04:46;;;;;;;;;;;;;;;;;;351520;28;809;-67
2022/06/26 00:04:56;;;;;;;;;;;;;;;;;;351455;28;904;-67
2022/06/26 00:05:07;;;;;;;;;;;;;;;;;;351476;28;920;-67
2022/06/26 00:05:17;;;;;;;;;;;;;;;;;;351509;28;888;-67
2022/06/26 00:05:27;;;;;;;;;;;;;;;;;;351488;28;916;-67
2022/06/26 00:05:37;;;;;;;;;;;;;;;;;;351465;28;908;-67
2022/06/26 00:05:48;;;;;;;;;;;;;;;;;;351490;28;999;-67
2022/06/26 00:05:58;;;;;;;;;;;;;;;;;;351496;28;818;-67
2022/06/26 00:06:08;;;;;;;;;;;;;;;;;;351494;28;959;-67
2022/06/26 00:06:18;;;;;;;;;;;;;;;;;;351440;28;1957;-67
2022/06/26 00:06:29;;;;;;;;;;;;;;;;;;351403;28;861;-67
2022/06/26 00:06:39;;;;;;;;;;;;;;;;;;351468;28;1677;-67
2022/06/26 00:06:49;;;;;;;;;;;;;;;;;;350430;28;1707;-67
2022/06/26 00:07:00;;;;;;;;;;;;;;;;;;350039;28;925;-67
2022/06/26 00:07:10;;;;;;;;;;;;;;;;;;350116;28;766;-67
2022/06/26 00:07:20;;;;;;;;;;;;;;;;;;350080;28;1062;-67
2022/06/26 00:07:30;;;;;;;;;;;;;;;;;;350076;28;876;-67
2022/06/26 00:07:41;;;;;;;;;;;;;;;;;;350098;28;932;-67
2022/06/26 00:07:51;;;;;;;;;;;;;;;;;;350106;28;904;-67
2022/06/26 00:08:02;;;;;;;;;;;;;;;;;;350013;28;983;-67
2022/06/26 00:08:12;;;;;;;;;;;;;;;;;;350096;28;1041;-67
2022/06/26 00:08:25;;;;;;;;;;;;;;;;;;350108;28;770;-67
2022/06/26 00:08:35;;;;;;;;;;;;;;;;;;350001;28;926;-67
2022/06/26 00:08:46;;;;;;;;;;;;;;;;;;350560;28;1595;-66
2022/06/26 00:08:56;;;;;;;;;;;;;;;;;;350447;28;1794;-67
2022/06/26 00:09:06;;;;;;;;;;;;;;;;;;351421;28;987;-67
2022/06/26 00:09:16;;;;;;;;;;;;;;;;;;351516;28;790;-67
2022/06/26 00:09:28;;;;;;;;;;;;;;;;;;350520;28;1758;-67
2022/06/26 00:09:38;;;;;;;;;;;;;;;;;;350024;28;967;-67
2022/06/26 00:09:48;;;;;;;;;;;;;;;;;;350090;28;937;-67
2022/06/26 00:09:59;;;;;;;;;;;;;;;;;;350097;28;917;-67
2022/06/26 00:10:09;;;;;;;;;;;;;;;;;;350049;28;861;-67
2022/06/26 00:10:19;;;;;;;;;;;;;;;;;;350114;28;814;-67
2022/06/26 00:10:29;;;;;;;;;;;;;;;;;;350083;28;904;-67
2022/06/26 00:10:39;;;;;;;;;;;;;;;;;;350036;28;890;-67
2022/06/26 00:10:50;;;;;;;;;;;;;;;;;;350138;28;1389;-67
2022/06/26 00:11:00;;;;;;;;;;;;;;;;;;351507;28;829;-67
2022/06/26 00:11:10;;;;;;;;;;;;;;;;;;351433;28;920;-67
2022/06/26 00:11:21;;;;;;;;;;;;;;;;;;351507;28;908;-67
2022/06/26 00:11:31;;;;;;;;;;;;;;;;;;351500;28;868;-67
2022/06/26 00:11:41;;;;;;;;;;;;;;;;;;351455;28;908;-66
2022/06/26 00:11:51;;;;;;;;;;;;;;;;;;351435;28;1642;-66
2022/06/26 00:12:02;;;;;;;;;;;;;;;;;;351442;28;944;-67
2022/06/26 00:12:12;;;;;;;;;;;;;;;;;;351454;28;916;-67
2022/06/26 00:12:22;;;;;;;;;;;;;;;;;;351490;28;943;-67
2022/06/26 00:12:33;;;;;;;;;;;;;;;;;;351523;28;829;-67
2022/06/26 00:12:43;;;;;;;;;;;;;;;;;;351396;28;849;-67
2022/06/26 00:12:54;;;;;;;;;;;;;;;;;;351476;28;976;-67
2022/06/26 00:13:04;;;;;;;;;;;;;;;;;;351475;28;901;-67
2022/06/26 00:13:14;;;;;;;;;;;;;;;;;;351373;28;1184;-67
2022/06/26 00:13:24;;;;;;;;;;;;;;;;;;351464;28;972;-67
2022/06/26 00:13:35;;;;;;;;;;;;;;;;;;351482;28;999;-67
2022/06/26 00:13:45;;;;;;;;;;;;;;;;;;351330;28;1599;-67
2022/06/26 00:13:55;;;;;;;;;;;;;;;;;;350499;28;1804;-67
2022/06/26 00:14:05;;;;;;;;;;;;;;;;;;350086;28;777;-67
2022/06/26 00:14:16;;;;;;;;;;;;;;;;;;350033;28;963;-67
2022/06/26 00:14:26;;;;;;;;;;;;;;;;;;350108;28;913;-67
2022/06/26 00:14:36;;;;;;;;;;;;;;;;;;350097;28;766;-67
2022/06/26 00:14:46;;;;;;;;;;;;;;;;;;349906;28;1623;-67
2022/06/26 00:14:56;;;;;;;;;;;;;;;;;;351456;28;1663;-67
2022/06/26 00:15:07;;;;;;;;;;;;;;;;;;351408;28;992;-66
2022/06/26 00:15:17;;;;;;;;;;;;;;;;;;351469;28;785;-67
2022/06/26 00:15:27;;;;;;;;;;;;;;;;;;351493;28;786;-67
2022/06/26 00:15:38;;;;;;;;;;;;;;;;;;351469;28;1007;-67
2022/06/26 00:15:48;;;;;;;;;;;;;;;;;;351447;28;904;-67
2022/06/26 00:15:58;;;;;;;;;;;;;;;;;;351485;28;870;-67
2022/06/26 00:16:09;;;;;;;;;;;;;;;;;;351453;28;1026;-67
2022/06/26 00:16:21;;;;;;;;;;;;;;;;;;351444;28;908;-67
2022/06/26 00:16:31;;;;;;;;;;;;;;;;;;351502;28;936;-67
2022/06/26 00:16:41;;;;;;;;;;;;;;;;;;351404;28;1586;-67
2022/06/26 00:16:52;;;;;;;;;;;;;;;;;;351371;28;960;-67
2022/06/26 00:17:02;;;;;;;;;;;;;;;;;;351459;28;971;-67
2022/06/26 00:17:12;;;;;;;;;;;;;;;;;;351491;28;987;-67
2022/06/26 00:17:23;;;;;;;;;;;;;;;;;;351442;28;1004;-67
2022/06/26 00:17:33;;;;;;;;;;;;;;;;;;351581;28;868;-67
2022/06/26 00:17:43;;;;;;;;;;;;;;;;;;351518;28;908;-66
2022/06/26 00:17:53;;;;;;;;;;;;;;;;;;351400;28;924;-66
2022/06/26 00:18:04;;;;;;;;;;;;;;;;;;351440;28;1318;-67
2022/06/26 00:18:14;;;;;;;;;;;;;;;;;;351455;28;1027;-67
2022/06/26 00:18:24;;;;;;;;;;;;;;;;;;351409;28;928;-67
2022/06/26 00:18:34;;;;;;;;;;;;;;;;;;351485;28;853;-67
2022/06/26 00:18:45;;;;;;;;;;;;;;;;;;351482;28;932;-67
2022/06/26 00:18:56;;;;;;;;;;;;;;;;;;351404;28;987;-67
2022/06/26 00:19:06;;;;;;;;;;;;;;;;;;351456;28;825;-67
2022/06/26 00:19:17;;;;;;;;;;;;;;;;;;351465;28;908;-67
2022/06/26 00:19:27;;;;;;;;;;;;;;;;;;351442;28;908;-67
2022/06/26 00:19:37;;;;;;;;;;;;;;;;;;351475;28;924;-67
2022/06/26 00:19:48;;;;;;;;;;;;;;;;;;351470;28;780;-67
2022/06/26 00:19:58;;;;;;;;;;;;;;;;;;351419;28;995;-67
2022/06/26 00:20:09;;;;;;;;;;;;;;;;;;351464;28;975;-67
2022/06/26 00:20:21;;;;;;;;;;;;;;;;;;351485;28;908;-67
2022/06/26 00:20:31;;;;;;;;;;;;;;;;;;351437;28;941;-67
2022/06/26 00:20:42;;;;;;;;;;;;;;;;;;351508;28;865;-67
2022/06/26 00:20:52;;;;;;;;;;;;;;;;;;350011;27;1382;-67
2022/06/26 00:21:03;;;;;;;;;;;;;;;;;;349991;28;920;-67
2022/06/26 00:21:13;;;;;;;;;;;;;;;;;;350035;28;944;-67
2022/06/26 00:21:23;;;;;;;;;;;;;;;;;;350082;28;829;-67
2022/06/26 00:21:33;;;;;;;;;;;;;;;;;;350009;28;916;-67
2022/06/26 00:21:44;;;;;;;;;;;;;;;;;;350150;28;1681;-67
2022/06/26 00:21:54;;;;;;;;;;;;;;;;;;350386;28;1726;-66
2022/06/26 00:22:06;;;;;;;;;;;;;;;;;;351169;28;1762;-67
2022/06/26 00:22:17;;;;;;;;;;;;;;;;;;351483;28;861;-67
2022/06/26 00:22:27;;;;;;;;;;;;;;;;;;350843;28;1814;-67
2022/06/26 00:22:37;;;;;;;;;;;;;;;;;;350017;28;1004;-67
2022/06/26 00:22:47;;;;;;;;;;;;;;;;;;350118;28;904;-66
2022/06/26 00:22:58;;;;;;;;;;;;;;;;;;350068;28;975;-67
2022/06/26 00:23:08;;;;;;;;;;;;;;;;;;350001;28;806;-67
2022/06/26 00:23:18;;;;;;;;;;;;;;;;;;350093;28;916;-67
2022/06/26 00:23:28;;;;;;;;;;;;;;;;;;350083;28;999;-67
2022/06/26 00:23:39;;;;;;;;;;;;;;;;;;350000;28;932;-67
2022/06/26 00:23:49;;;;;;;;;;;;;;;;;;350659;28;1668;-67
2022/06/26 00:23:59;;;;;;;;;;;;;;;;;;351500;28;935;-66
2022/06/26 00:24:09;;;;;;;;;;;;;;;;;;351386;28;1070;-67
2022/06/26 00:24:19;;;;;;;;;;;;;;;;;;351456;28;1133;-67
2022/06/26 00:24:29;;;;;;;;;;;;;;;;;;351422;28;1179;-67
2022/06/26 00:24:42;;;;;;;;;;;;;;;;;;351436;28;856;-67
2022/06/26 00:24:52;;;;;;;;;;;;;;;;;;351460;28;944;-67
2022/06/26 00:25:02;;;;;;;;;;;;;;;;;;351469;28;896;-67
2022/06/26 00:25:13;;;;;;;;;;;;;;;;;;351334;28;947;-67
2022/06/26 00:25:23;;;;;;;;;;;;;;;;;;351493;28;876;-67
2022/06/26 00:25:33;;;;;;;;;;;;;;;;;;351480;28;975;-67
2022/06/26 00:25:43;;;;;;;;;;;;;;;;;;351425;28;1011;-67
2022/06/26 00:25:53;;;;;;;;;;;;;;;;;;351476;28;908;-67
2022/06/26 00:26:04;;;;;;;;;;;;;;;;;;351412;28;1674;-66
2022/06/26 00:26:14;;;;;;;;;;;;;;;;;;351413;28;1011;-67
2022/06/26 00:26:25;;;;;;;;;;;;;;;;;;351388;28;1971;-67
2022/06/26 00:26:35;;;;;;;;;;;;;;;;;;351495;28;959;-67
2022/06/26 00:26:45;;;;;;;;;;;;;;;;;;351450;28;803;-67
2022/06/26 00:26:55;;;;;;;;;;;;;;;;;;351473;28;975;-66
2022/06/26 00:27:06;;;;;;;;;;;;;;;;;;351396;28;1005;-67
2022/06/26 00:27:16;;;;;;;;;;;;;;;;;;351268;28;1004;-67
2022/06/26 00:27:27;;;;;;;;;;;;;;;;;;351386;28;1063;-67
2022/06/26 00:27:37;;;;;;;;;;;;;;;;;;351480;28;920;-67
2022/06/26 00:27:47;;;;;;;;;;;;;;;;;;351370;28;818;-67
2022/06/26 00:27:58;;;;;;;;;;;;;;;;;;351421;28;1670;-67
2022/06/26 00:28:08;;;;;;;;;;;;;;;;;;351349;28;1152;-67
2022/06/26 00:28:18;;;;;;;;;;;;;;;;;;351370;28;980;-67
2022/06/26 00:28:28;;;;;;;;;;;;;;;;;;351451;28;967;-67
2022/06/26 00:28:38;;;;;;;;;;;;;;;;;;351482;28;800;-66
2022/06/26 00:28:49;;;;;;;;;;;;;;;;;;351392;28;939;-67
2022/06/26 00:28:59;;;;;;;;;;;;;;;;;;351467;28;987;-67
2022/06/26 00:29:09;;;;;;;;;;;;;;;;;;351484;28;948;-67
2022/06/26 00:29:19;;;;;;;;;;;;;;;;;;351388;28;852;-67
2022/06/26 00:29:30;;;;;;;;;;;;;;;;;;351501;28;853;-67
2022/06/26 00:29:40;;;;;;;;;;;;;;;;;;351470;28;924;-67
2022/06/26 00:29:50;;;;;;;;;;;;;;;;;;351441;28;908;-67
2022/06/26 00:30:01;;;;;;;;;;;;;;;;;;351506;28;802;-66
2022/06/26 00:30:11;;;;;;;;;;;;;;;;;;351442;28;987;-67
2022/06/26 00:30:21;;;;;;;;;;;;;;;;;;351417;28;900;-67
2022/06/26 00:30:31;;;;;;;;;;;;;;;;;;351465;28;924;-67
2022/06/26 00:30:42;;;;;;;;;;;;;;;;;;351487;28;921;-67
2022/06/26 00:30:52;;;;;;;;;;;;;;;;;;350346;28;1413;-67
2022/06/26 00:31:02;;;;;;;;;;;;;;;;;;351458;28;865;-67
2022/06/26 00:31:12;;;;;;;;;;;;;;;;;;351461;28;912;-66
2022/06/26 00:31:23;;;;;;;;;;;;;;;;;;351380;28;801;-67
2022/06/26 00:31:33;;;;;;;;;;;;;;;;;;351414;28;916;-67
2022/06/26 00:31:43;;;;;;;;;;;;;;;;;;351450;28;946;-67
2022/06/26 00:31:53;;;;;;;;;;;;;;;;;;351419;28;1618;-66
2022/06/26 00:32:04;;;;;;;;;;;;;;;;;;351447;28;909;-67
2022/06/26 00:32:14;;;;;;;;;;;;;;;;;;351470;28;889;-67
2022/06/26 00:32:25;;;;;;;;;;;;;;;;;;351430;28;785;-67
2022/06/26 00:32:35;;;;;;;;;;;;;;;;;;351363;28;965;-67
2022/06/26 00:32:45;;;;;;;;;;;;;;;;;;351471;28;841;-67
2022/06/26 00:32:55;;;;;;;;;;;;;;;;;;351466;28;975;-67
2022/06/26 00:33:05;;;;;;;;;;;;;;;;;;351467;28;865;-67
2022/06/26 00:33:16;;;;;;;;;;;;;;;;;;351475;28;849;-67
2022/06/26 00:33:26;;;;;;;;;;;;;;;;;;351381;28;888;-67
2022/06/26 00:33:36;;;;;;;;;;;;;;;;;;351408;28;991;-67
2022/06/26 00:33:46;;;;;;;;;;;;;;;;;;351392;28;1650;-67
2022/06/26 00:33:57;;;;;;;;;;;;;;;;;;351478;28;924;-66
2022/06/26 00:34:07;;;;;;;;;;;;;;;;;;351417;28;1016;-67
2022/06/26 00:34:17;;;;;;;;;;;;;;;;;;351436;28;854;-67
2022/06/26 00:34:27;;;;;;;;;;;;;;;;;;351485;28;794;-66
2022/06/26 00:34:38;;;;;;;;;;;;;;;;;;351454;28;947;-67
2022/06/26 00:34:48;;;;;;;;;;;;;;;;;;351420;28;889;-67
2022/06/26 00:34:58;;;;;;;;;;;;;;;;;;351444;28;932;-67
2022/06/26 00:35:09;;;;;;;;;;;;;;;;;;351381;28;1063;-67
2022/06/26 00:35:19;;;;;;;;;;;;;;;;;;351414;28;876;-67
2022/06/26 00:35:30;;;;;;;;;;;;;;;;;;351426;28;936;-67
2022/06/26 00:35:40;;;;;;;;;;;;;;;;;;351379;28;840;-67
2022/06/26 00:35:50;;;;;;;;;;;;;;;;;;351468;27;992;-67
2022/06/26 00:36:00;;;;;;;;;;;;;;;;;;351420;28;797;-67
2022/06/26 00:36:10;;;;;;;;;;;;;;;;;;351450;28;782;-67
2022/06/26 00:36:21;;;;;;;;;;;;;;;;;;351481;28;845;-67
2022/06/26 00:36:31;;;;;;;;;;;;;;;;;;351433;28;877;-67
2022/06/26 00:36:41;;;;;;;;;;;;;;;;;;351355;28;1598;-67
2022/06/26 00:36:51;;;;;;;;;;;;;;;;;;350675;28;1743;-67
2022/06/26 00:37:02;;;;;;;;;;;;;;;;;;350014;28;1337;-67
2022/06/26 00:37:12;;;;;;;;;;;;;;;;;;350033;28;987;-67
2022/06/26 00:37:22;;;;;;;;;;;;;;;;;;350033;28;916;-67
2022/06/26 00:37:32;;;;;;;;;;;;;;;;;;349981;28;1140;-67
2022/06/26 00:37:43;;;;;;;;;;;;;;;;;;349987;28;873;-67
2022/06/26 00:37:53;;;;;;;;;;;;;;;;;;350076;28;908;-67
2022/06/26 00:38:03;;;;;;;;;;;;;;;;;;350021;28;1004;-67
2022/06/26 00:38:13;;;;;;;;;;;;;;;;;;350093;28;821;-67
2022/06/26 00:38:24;;;;;;;;;;;;;;;;;;349804;28;1295;-67
2022/06/26 00:38:34;;;;;;;;;;;;;;;;;;351056;28;1707;-67
2022/06/26 00:38:44;;;;;;;;;;;;;;;;;;351462;28;908;-67
2022/06/26 00:38:54;;;;;;;;;;;;;;;;;;351427;27;963;-66
2022/06/26 00:39:04;;;;;;;;;;;;;;;;;;351456;28;960;-67
2022/06/26 00:39:15;;;;;;;;;;;;;;;;;;351427;28;971;-67
2022/06/26 00:39:25;;;;;;;;;;;;;;;;;;351436;28;822;-67
2022/06/26 00:39:35;;;;;;;;;;;;;;;;;;351423;28;972;-67
2022/06/26 00:39:45;;;;;;;;;;;;;;;;;;351398;28;929;-67
2022/06/26 00:39:56;;;;;;;;;;;;;;;;;;351403;28;735;-67
2022/06/26 00:40:07;;;;;;;;;;;;;;;;;;351456;28;921;-67
2022/06/26 00:40:17;;;;;;;;;;;;;;;;;;351362;28;973;-67
2022/06/26 00:40:27;;;;;;;;;;;;;;;;;;351477;28;983;-67
2022/06/26 00:40:40;;;;;;;;;;;;;;;;;;351196;28;1602;-66
2022/06/26 00:40:50;;;;;;;;;;;;;;;;;;350063;28;987;-67
2022/06/26 00:41:00;;;;;;;;;;;;;;;;;;350039;28;973;-67
2022/06/26 00:41:10;;;;;;;;;;;;;;;;;;350027;28;972;-67
2022/06/26 00:41:21;;;;;;;;;;;;;;;;;;350079;28;806;-67
2022/06/26 00:41:31;;;;;;;;;;;;;;;;;;350037;28;964;-67
2022/06/26 00:41:41;;;;;;;;;;;;;;;;;;350017;28;924;-67
2022/06/26 00:41:52;;;;;;;;;;;;;;;;;;349893;28;960;-67
2022/06/26 00:42:02;;;;;;;;;;;;;;;;;;349938;28;774;-67
2022/06/26 00:42:13;;;;;;;;;;;;;;;;;;349886;28;968;-67
2022/06/26 00:42:23;;;;;;;;;;;;;;;;;;349824;28;945;-67
2022/06/26 00:42:33;;;;;;;;;;;;;;;;;;349879;28;925;-67
2022/06/26 00:42:43;;;;;;;;;;;;;;;;;;350384;28;1670;-66
2022/06/26 00:42:53;;;;;;;;;;;;;;;;;;350070;28;853;-67
2022/06/26 00:43:04;;;;;;;;;;;;;;;;;;351254;28;1575;-67
2022/06/26 00:43:14;;;;;;;;;;;;;;;;;;351361;28;1611;-67
2022/06/26 00:43:28;;;;;;;;;;;;;;;;;;351450;28;944;-67
2022/06/26 00:43:38;;;;;;;;;;;;;;;;;;351346;28;861;-67
2022/06/26 00:43:48;;;;;;;;;;;;;;;;;;351444;28;967;-67
2022/06/26 00:43:58;;;;;;;;;;;;;;;;;;351439;28;892;-67
2022/06/26 00:44:13;;;;;;;;;;;;;;;;;;351448;27;916;-67
2022/06/26 00:44:24;;;;;;;;;;;;;;;;;;351404;28;932;-67
2022/06/26 00:44:34;;;;;;;;;;;;;;;;;;351433;28;952;-67
2022/06/26 00:44:44;;;;;;;;;;;;;;;;;;350542;28;1579;-66
2022/06/26 00:44:55;;;;;;;;;;;;;;;;;;350042;28;798;-67
2022/06/26 00:45:06;;;;;;;;;;;;;;;;;;349986;28;995;-67
2022/06/26 00:45:16;;;;;;;;;;;;;;;;;;350067;28;928;-66
2022/06/26 00:45:27;;;;;;;;;;;;;;;;;;350049;28;948;-67
2022/06/26 00:45:37;;;;;;;;;;;;;;;;;;349985;28;1591;-67
2022/06/26 00:45:47;;;;;;;;;;;;;;;;;;351379;28;1943;-67
2022/06/26 00:45:57;;;;;;;;;;;;;;;;;;351410;28;991;-67
2022/06/26 00:46:07;;;;;;;;;;;;;;;;;;351388;28;956;-67
2022/06/26 00:46:18;;;;;;;;;;;;;;;;;;351345;28;1902;-67
2022/06/26 00:46:28;;;;;;;;;;;;;;;;;;351399;28;943;-67
2022/06/26 00:46:38;;;;;;;;;;;;;;;;;;351408;28;1075;-67
2022/06/26 00:46:48;;;;;;;;;;;;;;;;;;351371;28;1565;-67
2022/06/26 00:46:59;;;;;;;;;;;;;;;;;;351437;28;924;-67
2022/06/26 00:47:09;;;;;;;;;;;;;;;;;;351422;28;959;-67
2022/06/26 00:47:20;;;;;;;;;;;;;;;;;;351419;28;936;-67
2022/06/26 00:47:31;;;;;;;;;;;;;;;;;;351423;28;920;-67
2022/06/26 00:47:41;;;;;;;;;;;;;;;;;;351393;28;912;-67
2022/06/26 00:47:52;;;;;;;;;;;;;;;;;;351400;28;1014;-67
2022/06/26 00:48:02;;;;;;;;;;;;;;;;;;351419;28;1007;-67
2022/06/26 00:48:12;;;;;;;;;;;;;;;;;;351437;28;778;-67
2022/06/26 00:48:22;;;;;;;;;;;;;;;;;;351364;28;1421;-67
2022/06/26 00:48:32;;;;;;;;;;;;;;;;;;350393;28;1650;-67
2022/06/26 00:48:43;;;;;;;;;;;;;;;;;;351435;28;924;-67
2022/06/26 00:48:53;;;;;;;;;;;;;;;;;;351452;27;924;-67
2022/06/26 00:49:03;;;;;;;;;;;;;;;;;;351458;28;778;-67
2022/06/26 00:49:13;;;;;;;;;;;;;;;;;;351348;28;964;-67
2022/06/26 00:49:23;;;;;;;;;;;;;;;;;;351455;28;913;-67
2022/06/26 00:49:34;;;;;;;;;;;;;;;;;;351447;28;991;-67
2022/06/26 00:49:44;;;;;;;;;;;;;;;;;;351420;28;928;-67
2022/06/26 00:49:54;;;;;;;;;;;;;;;;;;351296;28;1354;-67
2022/06/26 00:50:07;;;;;;;;;;;;;;;;;;351437;28;940;-67
2022/06/26 00:50:17;;;;;;;;;;;;;;;;;;351401;28;913;-67
2022/06/26 00:50:27;;;;;;;;;;;;;;;;;;351358;28;1548;-67
2022/06/26 00:50:38;;;;;;;;;;;;;;;;;;349988;28;1719;-67
2022/06/26 00:50:49;;;;;;;;;;;;;;;;;;351286;28;1587;-67
2022/06/26 00:50:59;;;;;;;;;;;;;;;;;;350064;28;983;-66
2022/06/26 00:51:09;;;;;;;;;;;;;;;;;;350030;28;952;-67
2022/06/26 00:51:21;;;;;;;;;;;;;;;;;;351039;28;1576;-67
2022/06/26 00:51:31;;;;;;;;;;;;;;;;;;351379;28;964;-67
2022/06/26 00:51:44;;;;;;;;;;;;;;;;;;351436;28;924;-67
2022/06/26 00:51:55;;;;;;;;;;;;;;;;;;351455;28;758;-67
2022/06/26 00:52:05;;;;;;;;;;;;;;;;;;351452;27;818;-67
2022/06/26 00:52:17;;;;;;;;;;;;;;;;;;351324;27;963;-67
2022/06/26 00:52:28;;;;;;;;;;;;;;;;;;351406;28;1661;-67
2022/06/26 00:52:39;;;;;;;;;;;;;;;;;;349983;28;1707;-66
2022/06/26 00:52:50;;;;;;;;;;;;;;;;;;351388;28;1004;-66
2022/06/26 00:53:00;;;;;;;;;;;;;;;;;;351285;28;1657;-66
2022/06/26 00:53:10;;;;;;;;;;;;;;;;;;350588;28;1626;-66
2022/06/26 00:53:20;;;;;;;;;;;;;;;;;;350052;28;929;-67
2022/06/26 00:53:31;;;;;;;;;;;;;;;;;;350440;28;1591;-66
2022/06/26 00:53:41;;;;;;;;;;;;;;;;;;350068;28;786;-67
2022/06/26 00:53:53;;;;;;;;;;;;;;;;;;350307;28;1627;-67
2022/06/26 00:54:03;;;;;;;;;;;;;;;;;;351391;28;1603;-67
2022/06/26 00:54:14;;;;;;;;;;;;;;;;;;351413;28;1127;-67
2022/06/26 00:54:26;;;;;;;;;;;;;;;;;;351314;28;1598;-66
2022/06/26 00:54:37;;;;;;;;;;;;;;;;;;350241;28;1706;-67
2022/06/26 00:54:48;;;;;;;;;;;;;;;;;;350030;28;928;-67
2022/06/26 00:54:58;;;;;;;;;;;;;;;;;;351241;28;1829;-66
2022/06/26 00:55:09;;;;;;;;;;;;;;;;;;351388;28;1662;-67
2022/06/26 00:55:19;;;;;;;;;;;;;;;;;;351426;28;969;-67
2022/06/26 00:55:30;;;;;;;;;;;;;;;;;;351484;28;983;-67
2022/06/26 00:55:40;;;;;;;;;;;;;;;;;;351422;28;944;-67
2022/06/26 00:55:50;;;;;;;;;;;;;;;;;;351358;28;984;-67
2022/06/26 00:56:00;;;;;;;;;;;;;;;;;;351437;28;936;-67
2022/06/26 00:56:11;;;;;;;;;;;;;;;;;;351383;28;980;-67
2022/06/26 00:56:21;;;;;;;;;;;;;;;;;;351339;27;993;-67
2022/06/26 00:56:32;;;;;;;;;;;;;;;;;;351413;28;909;-67
2022/06/26 00:56:42;;;;;;;;;;;;;;;;;;350624;28;1622;-67
2022/06/26 00:56:54;;;;;;;;;;;;;;;;;;350015;28;1751;-66
2022/06/26 00:57:05;;;;;;;;;;;;;;;;;;350022;28;940;-67
2022/06/26 00:57:15;;;;;;;;;;;;;;;;;;350938;28;1556;-66
2022/06/26 00:57:25;;;;;;;;;;;;;;;;;;351436;28;971;-67
2022/06/26 00:57:35;;;;;;;;;;;;;;;;;;351343;28;1118;-67
2022/06/26 00:57:46;;;;;;;;;;;;;;;;;;351397;28;992;-67
2022/06/26 00:57:56;;;;;;;;;;;;;;;;;;351403;28;975;-67
2022/06/26 00:58:06;;;;;;;;;;;;;;;;;;351433;28;786;-67
2022/06/26 00:58:17;;;;;;;;;;;;;;;;;;351387;27;948;-67
2022/06/26 00:58:27;;;;;;;;;;;;;;;;;;350697;28;1378;-67
2022/06/26 00:58:37;;;;;;;;;;;;;;;;;;350639;28;1536;-67
2022/06/26 00:58:48;;;;;;;;;;;;;;;;;;350081;28;826;-67
2022/06/26 00:58:58;;;;;;;;;;;;;;;;;;349986;28;774;-67
2022/06/26 00:59:09;;;;;;;;;;;;;;;;;;350048;28;913;-66
2022/06/26 00:59:19;;;;;;;;;;;;;;;;;;350289;28;1280;-67
2022/06/26 00:59:30;;;;;;;;;;;;;;;;;;351446;28;916;-67
2022/06/26 00:59:40;;;;;;;;;;;;;;;;;;351342;28;1008;-67
2022/06/26 00:59:50;;;;;;;;;;;;;;;;;;350691;28;1572;-67
2022/06/26 01:00:02;;;;;;;;;;;;;;;;;;350163;28;1771;-67
2022/06/26 01:00:13;;;;;;;;;;;;;;;;;;351406;27;941;-67
2022/06/26 01:00:23;;;;;;;;;;;;;;;;;;351283;28;1770;-66
2022/06/26 01:00:34;;;;;;;;;;;;;;;;;;350209;28;1797;-67
2022/06/26 01:00:44;;;;;;;;;;;;;;;;;;349982;28;944;-66
2022/06/26 01:00:55;;;;;;;;;;;;;;;;;;350040;28;774;-67
2022/06/26 01:01:05;;;;;;;;;;;;;;;;;;349803;28;1233;-67
2022/06/26 01:01:15;;;;;;;;;;;;;;;;;;349976;28;1031;-67
2022/06/26 01:01:25;;;;;;;;;;;;;;;;;;350059;28;435;-67
2022/06/26 01:01:36;;;;;;;;;;;;;;;;;;349991;28;944;-67
2022/06/26 01:01:46;;;;;;;;;;;;;;;;;;350360;28;1621;-67
2022/06/26 01:01:56;;;;;;;;;;;;;;;;;;351288;28;1646;-67
2022/06/26 01:02:07;;;;;;;;;;;;;;;;;;351394;28;853;-67
2022/06/26 01:02:17;;;;;;;;;;;;;;;;;;351435;28;833;-67
2022/06/26 01:02:27;;;;;;;;;;;;;;;;;;351359;28;928;-67
2022/06/26 01:02:38;;;;;;;;;;;;;;;;;;351280;28;1610;-67
2022/06/26 01:02:48;;;;;;;;;;;;;;;;;;351416;28;903;-66
2022/06/26 01:02:58;;;;;;;;;;;;;;;;;;351438;28;802;-67
2022/06/26 01:03:09;;;;;;;;;;;;;;;;;;351318;28;983;-67
2022/06/26 01:03:19;;;;;;;;;;;;;;;;;;351435;28;942;-67
2022/06/26 01:03:29;;;;;;;;;;;;;;;;;;351413;28;999;-67
2022/06/26 01:03:39;;;;;;;;;;;;;;;;;;351504;27;828;-67
2022/06/26 01:03:50;;;;;;;;;;;;;;;;;;351389;28;904;-67
2022/06/26 01:04:00;;;;;;;;;;;;;;;;;;351378;28;1003;-67
2022/06/26 01:04:11;;;;;;;;;;;;;;;;;;351410;28;987;-67
2022/06/26 01:04:21;;;;;;;;;;;;;;;;;;351396;28;979;-67
2022/06/26 01:04:31;;;;;;;;;;;;;;;;;;351395;28;805;-67
2022/06/26 01:04:41;;;;;;;;;;;;;;;;;;351364;28;971;-67
2022/06/26 01:04:51;;;;;;;;;;;;;;;;;;351416;28;837;-67
2022/06/26 01:05:02;;;;;;;;;;;;;;;;;;351384;28;974;-67
2022/06/26 01:05:12;;;;;;;;;;;;;;;;;;351413;28;896;-67
2022/06/26 01:05:23;;;;;;;;;;;;;;;;;;351410;28;975;-67
2022/06/26 01:05:33;;;;;;;;;;;;;;;;;;351458;28;920;-67
2022/06/26 01:05:43;;;;;;;;;;;;;;;;;;351459;28;810;-66
2022/06/26 01:05:54;;;;;;;;;;;;;;;;;;351358;28;909;-67
2022/06/26 01:06:07;;;;;;;;;;;;;;;;;;351390;28;943;-67
2022/06/26 01:06:17;;;;;;;;;;;;;;;;;;351401;28;1204;-67
2022/06/26 01:06:28;;;;;;;;;;;;;;;;;;351386;28;1902;-67
2022/06/26 01:06:38;;;;;;;;;;;;;;;;;;351344;28;946;-67
2022/06/26 01:06:49;;;;;;;;;;;;;;;;;;350693;28;1658;-67
2022/06/26 01:06:59;;;;;;;;;;;;;;;;;;350676;28;1688;-67
2022/06/26 01:07:11;;;;;;;;;;;;;;;;;;351320;28;932;-67
2022/06/26 01:07:21;;;;;;;;;;;;;;;;;;351259;28;1789;-66
2022/06/26 01:07:31;;;;;;;;;;;;;;;;;;350017;28;862;-67
2022/06/26 01:07:42;;;;;;;;;;;;;;;;;;350007;28;925;-67
2022/06/26 01:07:53;;;;;;;;;;;;;;;;;;350015;28;928;-67
2022/06/26 01:08:03;;;;;;;;;;;;;;;;;;350004;28;1000;-67
2022/06/26 01:08:13;;;;;;;;;;;;;;;;;;349939;28;794;-67
2022/06/26 01:08:24;;;;;;;;;;;;;;;;;;350013;28;802;-67
2022/06/26 01:08:34;;;;;;;;;;;;;;;;;;349473;28;1354;-67
2022/06/26 01:08:45;;;;;;;;;;;;;;;;;;349988;28;1156;-67
2022/06/26 01:08:58;;;;;;;;;;;;;;;;;;349858;28;1054;-67
2022/06/26 01:09:11;;;;;;;;;;;;;;;;;;350040;28;850;-66
2022/06/26 01:09:22;;;;;;;;;;;;;;;;;;349974;28;1006;-67
2022/06/26 01:09:33;;;;;;;;;;;;;;;;;;350011;28;900;-67
2022/06/26 01:09:44;;;;;;;;;;;;;;;;;;350023;28;908;-67
2022/06/26 01:09:54;;;;;;;;;;;;;;;;;;349952;28;956;-67
2022/06/26 01:10:05;;;;;;;;;;;;;;;;;;350009;28;916;-67
2022/06/26 01:10:15;;;;;;;;;;;;;;;;;;349991;28;970;-67
2022/06/26 01:10:25;;;;;;;;;;;;;;;;;;349980;28;923;-67
2022/06/26 01:10:37;;;;;;;;;;;;;;;;;;350055;28;1000;-67
2022/06/26 01:10:48;;;;;;;;;;;;;;;;;;350057;28;868;-67
2022/06/26 01:10:59;;;;;;;;;;;;;;;;;;349872;28;1094;-67
2022/06/26 01:11:20;;;;;;;;;;;;;;;;;;349963;28;928;-67
2022/06/26 01:11:30;;;;;;;;;;;;;;;;;;350007;28;1648;-67
2022/06/26 01:11:41;;;;;;;;;;;;;;;;;;349944;28;959;-67
2022/06/26 01:11:53;;;;;;;;;;;;;;;;;;350041;28;956;-67
2022/06/26 01:12:04;;;;;;;;;;;;;;;;;;350024;28;877;-67
2022/06/26 01:12:14;;;;;;;;;;;;;;;;;;350250;28;1643;-67
2022/06/26 01:12:25;;;;;;;;;;;;;;;;;;351325;28;1657;-67
2022/06/26 01:12:35;;;;;;;;;;;;;;;;;;351436;28;931;-67
2022/06/26 01:12:45;;;;;;;;;;;;;;;;;;351401;28;1059;-67
2022/06/26 01:12:55;;;;;;;;;;;;;;;;;;351428;28;971;-67
2022/06/26 01:13:07;;;;;;;;;;;;;;;;;;351323;28;928;-67
2022/06/26 01:13:17;;;;;;;;;;;;;;;;;;351329;28;892;-67
2022/06/26 01:13:27;;;;;;;;;;;;;;;;;;351414;28;1023;-67
2022/06/26 01:13:38;;;;;;;;;;;;;;;;;;351418;28;931;-67
2022/06/26 01:13:49;;;;;;;;;;;;;;;;;;351446;28;999;-67
2022/06/26 01:14:00;;;;;;;;;;;;;;;;;;351345;28;864;-67
2022/06/26 01:14:10;;;;;;;;;;;;;;;;;;351466;28;1142;-67
2022/06/26 01:14:21;;;;;;;;;;;;;;;;;;351401;28;995;-67
2022/06/26 01:14:31;;;;;;;;;;;;;;;;;;351458;27;874;-67
2022/06/26 01:14:41;;;;;;;;;;;;;;;;;;351393;28;964;-67
2022/06/26 01:14:51;;;;;;;;;;;;;;;;;;351005;27;1685;-67
2022/06/26 01:15:05;;;;;;;;;;;;;;;;;;350027;28;853;-67